Allen, MI

3:42 PM EDT on September 01, 2015 (GMT -0400)
APRSWXNET | | Change Station
CLOSE
Current Station
Personal Weather Station
Location: Litchfield, MI
Elevation: 1055 ft
Nearby Weather Stations

Elev 1055 ft 42.05 °N, 84.75 °W | Updated 54 minutes ago

Clear
Clear
86 °F
Feels Like 88 °F
N
0
Wind Variable Wind from WSW
Gusts 7.0 mph

Today
High -- | Low -- °F
--% Chance of Precip.
Yesterday
High -- | Low -- °F
Precip. -- in
7:04 AM 8:13 PM
Waning Gibbous, 87% visible
Pressure 30.08 in
Visibility 10.0 miles
Clouds Clear
Heat Index 88 °F
Dew Point 66 °F
Humidity 52%
Rainfall in
Snow Depth Not available.
UV 7 out of 12
Pollen 10.50 out of 12
Air Quality Not available.
Flu Activity Not available.
METAR KJYM 011935Z AUTO 25005KT 10SM CLR 31/19 A3008 RMK AO2 T03060186
Pressure 30.08 in
Visibility 10.0 miles
Clouds Clear
Heat Index 88 °F
Dew Point 66 °F
Humidity 52%
Rainfall in
Snow Depth Not available.
UV 7 out of 12
Pollen 10.50 out of 12
Air Quality Not available.
Flu Activity Not available.
METAR KJYM 011935Z AUTO 25005KT 10SM CLR 31/19 A3008 RMK AO2 T03060186

10-Day Weather Forecast

×

Almanac

Astronomy

Sep. 01, 2015 Rise Set
Actual Time
Civil Twilight
Nautical Twilight
Astronomical Twilight
Moon
Length of Visible Light
Length of Day
Tomorrow will be .
, % of the Moon is Illuminated

Today's Extremes

State Highs State Lows

Community

WunderPhotos

Upload Photos

1,851,597 photos uploaded!

WunderBlogs® & News

Nearby

Air Quality

  Air Quality AQ Index Pollutant
Not available.

Snow Depth

Station Depth Elevation

Earthquake Activity

City Distance Mag. Time & Date
Minimum magnitude displayed is 2.5.

Coastal Water Temperatures

Place Temperature

Stations

Nearby Weather Stations

Station Location Temp. Windchill Dew Point Humidity Wind Precip. Elev Updated Type